aviador You're here:

KGAF Decoded Metar

in
Report Time2017-07-23 00:35:00
UTC Time2017-07-23 00:45:11
Flight Rules vfr VFR
Wind320° at 07 kt
W.Decomp.*RWY 35: 6.1 kt HW 3.5 kt LCW
RWY 26: 3.5 kt HW 6.1 kt RCW
W.Rank320° ranks 8
Current wind is below 320° avg. (9.5)
Visibility9999 m
Phenomena:N/A
Clouds:N/A
Expected CloudBase > 2,000 ft AGL from Temp-Dew spread
CeilingNone
Temp21°C
Dew Point16°C (73% RH)
AAT20.5°C
QNH1012 hPa
Raw Report
KGAF 230035Z AUTO 32007KT 10SM CLR 21/16 A2988 RMK AO2=

Extra information for KGAF:More info

Social comments